Time,TemperatureF,DewpointF,PressureIn,WindDirection,WindDirectionDegrees,WindSpeedMPH,WindSpeedGustMPH,Humidity,HourlyPrecipIn,Conditions,Clouds,dailyrainin,SoftwareType,DateUTC
2013-03-03 00:02:00,34.0,27.0,29.75,North,353,1.0,4.0,76,99.99,,,-99.99,,2013-03-03 05:02:00,
2013-03-03 00:12:00,34.0,27.0,29.75,North,353,1.0,4.0,76,99.99,,,-99.99,,2013-03-03 05:12:00,
2013-03-03 00:22:00,34.0,27.0,29.75,North,0,0.0,0.0,76,99.99,,,-99.99,,2013-03-03 05:22:00,
2013-03-03 00:32:00,34.0,27.0,29.75,NNW,346,1.0,4.0,76,99.99,,,-99.99,,2013-03-03 05:32:00,
2013-03-03 00:42:00,34.0,27.0,29.75,NNW,346,1.0,4.0,76,99.99,,,-99.99,,2013-03-03 05:42:00,
2013-03-03 00:52:00,34.0,28.0,29.75,NNW,342,1.0,4.0,77,99.99,,,-99.99,,2013-03-03 05:52:00,
2013-03-03 01:02:00,34.0,28.0,29.75,WNW,298,1.0,6.0,77,99.99,,,-99.99,,2013-03-03 06:02:00,
2013-03-03 01:11:00,34.0,28.0,29.75,WNW,298,1.0,6.0,77,99.99,,,-99.99,,2013-03-03 06:11:00,
2013-03-03 01:21:00,33.0,27.0,29.75,West,267,0.0,4.0,77,99.99,,,-99.99,,2013-03-03 06:21:00,
2013-03-03 01:32:00,33.0,27.0,29.75,West,274,0.0,4.0,77,99.99,,,-99.99,,2013-03-03 06:32:00,
2013-03-03 01:42:00,33.0,27.0,29.75,West,274,0.0,4.0,77,99.99,,,-99.99,,2013-03-03 06:42:00,
2013-03-03 01:52:00,33.0,27.0,29.75,WNW,294,0.0,2.0,77,99.99,,,-99.99,,2013-03-03 06:52:00,
2013-03-03 02:01:00,33.0,27.0,29.75,North,0,0.0,0.0,78,99.99,,,-99.99,,2013-03-03 07:01:00,
2013-03-03 02:11:00,33.0,27.0,29.75,North,0,0.0,0.0,78,99.99,,,-99.99,,2013-03-03 07:11:00,
2013-03-03 02:21:00,33.0,27.0,29.74,North,0,0.0,0.0,78,99.99,,,-99.99,,2013-03-03 07:21:00,
2013-03-03 02:32:00,33.0,27.0,29.73,WNW,300,3.0,4.0,78,99.99,,,-99.99,,2013-03-03 07:32:00,
2013-03-03 02:42:00,33.0,27.0,29.73,WNW,300,3.0,4.0,78,99.99,,,-99.99,,2013-03-03 07:42:00,
2013-03-03 02:52:00,33.0,27.0,29.73,NNW,333,3.0,5.0,78,99.99,,,-99.99,,2013-03-03 07:52:00,
2013-03-03 03:01:00,33.0,27.0,29.73,SW,228,3.0,4.0,78,99.99,,,-99.99,,2013-03-03 08:01:00,
2013-03-03 03:11:00,33.0,27.0,29.73,SW,228,3.0,4.0,78,99.99,,,-99.99,,2013-03-03 08:11:00,
2013-03-03 03:21:00,33.0,27.0,29.73,North,357,1.0,4.0,78,99.99,,,-99.99,,2013-03-03 08:21:00,
2013-03-03 03:31:00,33.0,27.0,29.73,NNW,346,0.0,5.0,78,99.99,,,-99.99,,2013-03-03 08:31:00,
2013-03-03 03:42:00,33.0,27.0,29.73,NNW,346,0.0,5.0,78,99.99,,,-99.99,,2013-03-03 08:42:00,
2013-03-03 03:54:00,33.0,27.0,29.73,North,350,1.0,3.0,79,99.99,,,-99.99,,2013-03-03 08:54:00,
2013-03-03 04:01:00,33.0,27.0,29.73,NW,318,2.0,3.0,79,99.99,,,-99.99,,2013-03-03 09:01:00,
2013-03-03 04:11:00,33.0,27.0,29.73,NW,318,2.0,3.0,79,99.99,,,-99.99,,2013-03-03 09:11:00,
2013-03-03 04:21:00,33.0,27.0,29.72,North,356,0.0,5.0,79,99.99,,,-99.99,,2013-03-03 09:21:00,
2013-03-03 04:32:00,33.0,27.0,29.73,North,350,0.0,2.0,79,99.99,,,-99.99,,2013-03-03 09:32:00,
2013-03-03 04:41:00,33.0,27.0,29.73,North,350,0.0,2.0,79,99.99,,,-99.99,,2013-03-03 09:41:00,
2013-03-03 04:52:00,32.0,26.0,29.73,North,0,0.0,0.0,79,99.99,,,-99.99,,2013-03-03 09:52:00,
2013-03-03 05:01:00,32.0,27.0,29.73,WNW,301,0.0,5.0,81,99.99,,,-99.99,,2013-03-03 10:01:00,
2013-03-03 05:11:00,32.0,27.0,29.73,WNW,301,0.0,5.0,81,99.99,,,-99.99,,2013-03-03 10:11:00,
2013-03-03 05:21:00,32.0,27.0,29.73,WNW,302,1.0,6.0,82,99.99,,,-99.99,,2013-03-03 10:21:00,
2013-03-03 05:32:00,32.0,27.0,29.73,NW,308,0.0,4.0,83,99.99,,,-99.99,,2013-03-03 10:32:00,
2013-03-03 05:42:00,32.0,27.0,29.73,NW,308,0.0,4.0,83,99.99,,,-99.99,,2013-03-03 10:42:00,
2013-03-03 05:52:00,31.0,27.0,29.73,NW,319,1.0,3.0,84,99.99,,,-99.99,,2013-03-03 10:52:00,
2013-03-03 06:01:00,31.0,27.0,29.73,WNW,284,0.0,3.0,84,99.99,,,-99.99,,2013-03-03 11:01:00,
2013-03-03 06:11:00,31.0,27.0,29.73,WNW,284,0.0,3.0,84,99.99,,,-99.99,,2013-03-03 11:11:00,
2013-03-03 06:22:00,31.0,27.0,29.73,North,0,0.0,0.0,84,99.99,,,-99.99,,2013-03-03 11:22:00,
2013-03-03 06:32:00,31.0,27.0,29.74,West,269,0.0,2.0,85,99.99,,,-99.99,,2013-03-03 11:32:00,
2013-03-03 06:42:00,31.0,27.0,29.74,West,269,0.0,2.0,85,99.99,,,-99.99,,2013-03-03 11:42:00,
2013-03-03 06:53:00,31.0,27.0,29.74,WNW,285,1.0,1.0,85,99.99,,,-99.99,,2013-03-03 11:53:00,
2013-03-03 07:01:00,31.0,27.0,29.74,WSW,252,0.0,2.0,85,99.99,,,-99.99,,2013-03-03 12:01:00,
2013-03-03 07:11:00,31.0,27.0,29.74,WSW,252,0.0,2.0,85,99.99,,,-99.99,,2013-03-03 12:11:00,
2013-03-03 07:21:00,31.0,27.0,29.75,WNW,294,4.0,4.0,86,99.99,,,-99.99,,2013-03-03 12:21:00,
2013-03-03 07:32:00,31.0,27.0,29.75,West,270,2.0,6.0,86,99.99,,,-99.99,,2013-03-03 12:32:00,
2013-03-03 07:43:00,31.0,27.0,29.75,West,270,2.0,6.0,86,99.99,,,-99.99,,2013-03-03 12:43:00,
2013-03-03 07:53:00,31.0,27.0,29.75,WNW,285,2.0,5.0,86,99.99,,,-99.99,,2013-03-03 12:53:00,
2013-03-03 08:01:00,32.0,29.0,29.75,West,278,4.0,6.0,87,99.99,,,-99.99,,2013-03-03 13:01:00,
2013-03-03 08:11:00,32.0,29.0,29.75,West,278,4.0,6.0,87,99.99,,,-99.99,,2013-03-03 13:11:00,
2013-03-03 08:22:00,31.0,28.0,29.75,WNW,297,1.0,6.0,88,99.99,,,-99.99,,2013-03-03 13:22:00,
2013-03-03 08:32:00,31.0,28.0,29.75,WNW,288,3.0,7.0,88,99.99,,,-99.99,,2013-03-03 13:32:00,
2013-03-03 08:42:00,31.0,28.0,29.75,WNW,288,3.0,7.0,88,99.99,,,-99.99,,2013-03-03 13:42:00,
2013-03-03 08:52:00,31.0,28.0,29.74,West,277,5.0,5.0,89,99.99,,,-99.99,,2013-03-03 13:52:00,
2013-03-03 09:02:00,31.0,28.0,29.74,NNW,332,2.0,4.0,89,99.99,,,-99.99,,2013-03-03 14:02:00,
2013-03-03 09:11:00,31.0,28.0,29.74,NNW,332,2.0,4.0,89,99.99,,,-99.99,,2013-03-03 14:11:00,
2013-03-03 09:21:00,32.0,29.0,29.74,WNW,283,2.0,6.0,90,99.99,,,-99.99,,2013-03-03 14:21:00,
2013-03-03 09:32:00,32.0,29.0,29.74,WNW,294,1.0,4.0,89,99.99,,,-99.99,,2013-03-03 14:32:00,
2013-03-03 09:42:00,32.0,29.0,29.74,WNW,294,1.0,4.0,89,99.99,,,-99.99,,2013-03-03 14:42:00,
2013-03-03 09:52:00,32.0,29.0,29.74,WSW,249,1.0,4.0,89,99.99,,,-99.99,,2013-03-03 14:52:00,
2013-03-03 10:02:00,33.0,30.0,29.74,NNW,329,3.0,4.0,87,99.99,,,-99.99,,2013-03-03 15:02:00,
2013-03-03 10:11:00,33.0,30.0,29.74,NNW,329,3.0,4.0,87,99.99,,,-99.99,,2013-03-03 15:11:00,
2013-03-03 10:22:00,33.0,29.0,29.73,West,276,5.0,10.0,86,99.99,,,-99.99,,2013-03-03 15:22:00,
2013-03-03 10:32:00,34.0,30.0,29.73,West,264,6.0,7.0,86,99.99,,,-99.99,,2013-03-03 15:32:00,
2013-03-03 10:42:00,34.0,30.0,29.73,West,264,6.0,7.0,86,99.99,,,-99.99,,2013-03-03 15:42:00,
2013-03-03 10:52:00,34.0,30.0,29.73,NW,305,3.0,8.0,85,99.99,,,-99.99,,2013-03-03 15:52:00,
2013-03-03 11:01:00,35.0,31.0,29.72,NW,311,3.0,8.0,85,99.99,,,-99.99,,2013-03-03 16:01:00,
2013-03-03 11:12:00,35.0,31.0,29.72,NW,311,3.0,8.0,85,99.99,,,-99.99,,2013-03-03 16:12:00,
2013-03-03 11:22:00,35.0,31.0,29.72,NW,307,4.0,7.0,84,99.99,,,-99.99,,2013-03-03 16:22:00,
2013-03-03 11:32:00,35.0,30.0,29.72,NW,312,3.0,7.0,83,99.99,,,-99.99,,2013-03-03 16:32:00,
2013-03-03 11:42:00,35.0,30.0,29.72,NW,312,3.0,7.0,83,99.99,,,-99.99,,2013-03-03 16:42:00,
2013-03-03 11:52:00,36.0,31.0,29.72,NNW,328,5.0,10.0,82,99.99,,,-99.99,,2013-03-03 16:52:00,
2013-03-03 12:01:00,37.0,32.0,29.72,West,278,3.0,4.0,82,99.99,,,-99.99,,2013-03-03 17:01:00,
2013-03-03 12:11:00,37.0,32.0,29.71,West,267,2.0,8.0,82,99.99,,,-99.99,,2013-03-03 17:11:00,
2013-03-03 12:22:00,37.0,32.0,29.71,West,267,2.0,8.0,82,99.99,,,-99.99,,2013-03-03 17:22:00,
2013-03-03 12:32:00,38.0,32.0,29.70,WNW,287,4.0,8.0,80,99.99,,,-99.99,,2013-03-03 17:32:00,
2013-03-03 12:42:00,38.0,32.0,29.70,WNW,287,4.0,8.0,80,99.99,,,-99.99,,2013-03-03 17:42:00,
2013-03-03 12:52:00,38.0,32.0,29.70,NW,323,3.0,5.0,79,99.99,,,-99.99,,2013-03-03 17:52:00,
2013-03-03 13:02:00,38.0,32.0,29.70,West,277,2.0,8.0,80,99.99,,,-99.99,,2013-03-03 18:02:00,
2013-03-03 13:11:00,38.0,32.0,29.70,West,277,2.0,8.0,80,99.99,,,-99.99,,2013-03-03 18:11:00,
2013-03-03 13:21:00,38.0,32.0,29.69,SW,233,0.0,5.0,79,99.99,,,-99.99,,2013-03-03 18:21:00,
2013-03-03 13:32:00,38.0,32.0,29.69,West,262,0.0,6.0,78,99.99,,,-99.99,,2013-03-03 18:32:00,
2013-03-03 13:42:00,38.0,32.0,29.69,West,262,0.0,6.0,78,99.99,,,-99.99,,2013-03-03 18:42:00,
2013-03-03 13:52:00,38.0,32.0,29.69,NNW,340,2.0,6.0,80,99.99,,,-99.99,,2013-03-03 18:52:00,
2013-03-03 14:02:00,38.0,32.0,29.69,NW,321,0.0,2.0,79,99.99,,,-99.99,,2013-03-03 19:02:00,
2013-03-03 14:11:00,39.0,32.0,29.68,NNW,335,0.0,7.0,77,99.99,,,-99.99,,2013-03-03 19:11:00,
2013-03-03 14:22:00,39.0,32.0,29.68,NNW,335,0.0,7.0,77,99.99,,,-99.99,,2013-03-03 19:22:00,
2013-03-03 14:32:00,39.0,32.0,29.68,NW,305,4.0,7.0,75,99.99,,,-99.99,,2013-03-03 19:32:00,
2013-03-03 14:42:00,39.0,32.0,29.68,NW,305,4.0,7.0,75,99.99,,,-99.99,,2013-03-03 19:42:00,
2013-03-03 14:52:00,39.0,32.0,29.68,West,277,2.0,9.0,75,99.99,,,-99.99,,2013-03-03 19:52:00,
2013-03-03 15:01:00,39.0,32.0,29.68,WNW,293,0.0,8.0,77,99.99,,,-99.99,,2013-03-03 20:01:00,
2013-03-03 15:11:00,39.0,32.0,29.68,WNW,293,0.0,8.0,77,99.99,,,-99.99,,2013-03-03 20:11:00,
2013-03-03 15:21:00,38.0,32.0,29.68,WNW,287,4.0,6.0,80,99.99,,,-99.99,,2013-03-03 20:21:00,
2013-03-03 15:32:00,38.0,32.0,29.68,West,278,1.0,5.0,80,99.99,,,-99.99,,2013-03-03 20:32:00,
2013-03-03 15:42:00,38.0,32.0,29.68,West,278,1.0,5.0,80,99.99,,,-99.99,,2013-03-03 20:42:00,
2013-03-03 15:53:00,39.0,33.0,29.68,WNW,293,0.0,3.0,78,99.99,,,-99.99,,2013-03-03 20:53:00,
2013-03-03 16:02:00,39.0,32.0,29.68,West,278,5.0,9.0,77,99.99,,,-99.99,,2013-03-03 21:02:00,
2013-03-03 16:11:00,39.0,32.0,29.68,West,278,5.0,9.0,77,99.99,,,-99.99,,2013-03-03 21:11:00,
2013-03-03 16:22:00,39.0,32.0,29.68,West,269,0.0,4.0,76,99.99,,,-99.99,,2013-03-03 21:22:00,
2013-03-03 16:32:00,39.0,32.0,29.68,WNW,302,0.0,4.0,75,99.99,,,-99.99,,2013-03-03 21:32:00,
2013-03-03 16:42:00,39.0,32.0,29.68,WNW,302,0.0,4.0,75,99.99,,,-99.99,,2013-03-03 21:42:00,
2013-03-03 16:52:00,39.0,32.0,29.69,WSW,252,3.0,9.0,75,99.99,,,-99.99,,2013-03-03 21:52:00,
2013-03-03 17:01:00,38.0,30.0,29.69,West,274,3.0,11.0,74,99.99,,,-99.99,,2013-03-03 22:01:00,
2013-03-03 17:11:00,38.0,30.0,29.69,West,274,3.0,11.0,74,99.99,,,-99.99,,2013-03-03 22:11:00,
2013-03-03 17:22:00,38.0,30.0,29.69,WNW,295,3.0,11.0,74,99.99,,,-99.99,,2013-03-03 22:22:00,
2013-03-03 17:32:00,38.0,30.0,29.69,WSW,256,6.0,6.0,74,99.99,,,-99.99,,2013-03-03 22:32:00,
2013-03-03 17:42:00,38.0,30.0,29.69,WSW,256,6.0,6.0,74,99.99,,,-99.99,,2013-03-03 22:42:00,
2013-03-03 17:52:00,38.0,30.0,29.70,WNW,290,2.0,7.0,73,99.99,,,-99.99,,2013-03-03 22:52:00,
2013-03-03 18:01:00,37.0,29.0,29.70,NNW,336,4.0,7.0,74,99.99,,,-99.99,,2013-03-03 23:01:00,
2013-03-03 18:11:00,37.0,29.0,29.70,NNW,336,4.0,7.0,74,99.99,,,-99.99,,2013-03-03 23:11:00,
2013-03-03 18:21:00,37.0,29.0,29.71,NW,318,2.0,8.0,74,99.99,,,-99.99,,2013-03-03 23:21:00,
2013-03-03 18:32:00,37.0,30.0,29.71,NW,312,2.0,7.0,75,99.99,,,-99.99,,2013-03-03 23:32:00,
2013-03-03 18:42:00,37.0,30.0,29.71,NW,312,2.0,7.0,75,99.99,,,-99.99,,2013-03-03 23:42:00,
2013-03-03 18:52:00,37.0,30.0,29.71,NW,304,0.0,5.0,76,99.99,,,-99.99,,2013-03-03 23:52:00,
2013-03-03 19:01:00,37.0,30.0,29.71,NW,304,2.0,4.0,76,99.99,,,-99.99,,2013-03-04 00:01:00,
2013-03-03 19:11:00,37.0,30.0,29.71,NW,304,2.0,4.0,76,99.99,,,-99.99,,2013-03-04 00:11:00,
2013-03-03 19:21:00,36.0,29.0,29.71,WNW,298,0.0,4.0,76,99.99,,,-99.99,,2013-03-04 00:21:00,
2013-03-03 19:32:00,36.0,29.0,29.71,WNW,284,0.0,8.0,77,99.99,,,-99.99,,2013-03-04 00:32:00,
2013-03-03 19:42:00,36.0,29.0,29.71,WNW,284,0.0,8.0,77,99.99,,,-99.99,,2013-03-04 00:42:00,
2013-03-03 19:52:00,36.0,29.0,29.71,WNW,288,0.0,8.0,77,99.99,,,-99.99,,2013-03-04 00:52:00,
2013-03-03 20:01:00,36.0,30.0,29.72,NW,305,3.0,6.0,78,99.99,,,-99.99,,2013-03-04 01:01:00,
2013-03-03 20:12:00,36.0,30.0,29.72,NW,305,3.0,6.0,78,99.99,,,-99.99,,2013-03-04 01:12:00,
2013-03-03 20:21:00,36.0,29.0,29.72,NNW,346,2.0,4.0,77,99.99,,,-99.99,,2013-03-04 01:21:00,
2013-03-03 20:32:00,36.0,30.0,29.72,WNW,294,4.0,9.0,78,99.99,,,-99.99,,2013-03-04 01:32:00,
2013-03-03 20:42:00,36.0,30.0,29.72,WNW,294,4.0,9.0,78,99.99,,,-99.99,,2013-03-04 01:42:00,
2013-03-03 20:52:00,35.0,29.0,29.72,West,271,3.0,8.0,78,99.99,,,-99.99,,2013-03-04 01:52:00,
2013-03-03 21:01:00,36.0,30.0,29.72,West,278,3.0,9.0,78,99.99,,,-99.99,,2013-03-04 02:01:00,
2013-03-03 21:11:00,35.0,29.0,29.72,WNW,295,2.0,7.0,78,99.99,,,-99.99,,2013-03-04 02:11:00,
2013-03-03 21:22:00,35.0,29.0,29.72,WNW,295,2.0,7.0,78,99.99,,,-99.99,,2013-03-04 02:22:00,
2013-03-03 21:32:00,35.0,29.0,29.72,West,273,1.0,5.0,78,99.99,,,-99.99,,2013-03-04 02:32:00,
2013-03-03 21:42:00,35.0,29.0,29.72,West,273,1.0,5.0,78,99.99,,,-99.99,,2013-03-04 02:42:00,
2013-03-03 21:53:00,35.0,29.0,29.72,WNW,291,2.0,7.0,79,99.99,,,-99.99,,2013-03-04 02:53:00,
2013-03-03 22:02:00,35.0,29.0,29.72,WNW,301,3.0,6.0,78,99.99,,,-99.99,,2013-03-04 03:02:00,
2013-03-03 22:11:00,35.0,29.0,29.72,WNW,301,3.0,6.0,78,99.99,,,-99.99,,2013-03-04 03:11:00,
2013-03-03 22:22:00,35.0,29.0,29.72,NNW,336,2.0,5.0,79,99.99,,,-99.99,,2013-03-04 03:22:00,
2013-03-03 22:32:00,34.0,28.0,29.72,WNW,284,5.0,12.0,79,99.99,,,-99.99,,2013-03-04 03:32:00,
2013-03-03 22:42:00,34.0,28.0,29.72,WNW,300,2.0,6.0,79,99.99,,,-99.99,,2013-03-04 03:42:00,
2013-03-03 22:52:00,34.0,28.0,29.72,WNW,300,2.0,6.0,79,99.99,,,-99.99,,2013-03-04 03:52:00,
2013-03-03 23:01:00,34.0,28.0,29.72,NW,304,4.0,9.0,79,99.99,,,-99.99,,2013-03-04 04:01:00,
2013-03-03 23:11:00,34.0,28.0,29.72,NW,304,4.0,9.0,79,99.99,,,-99.99,,2013-03-04 04:11:00,
2013-03-03 23:22:00,34.0,28.0,29.72,WNW,285,5.0,9.0,78,99.99,,,-99.99,,2013-03-04 04:22:00,
2013-03-03 23:32:00,34.0,28.0,29.72,WNW,291,5.0,8.0,78,99.99,,,-99.99,,2013-03-04 04:32:00,
2013-03-03 23:42:00,34.0,28.0,29.72,WNW,291,5.0,8.0,78,99.99,,,-99.99,,2013-03-04 04:42:00,
2013-03-03 23:52:00,34.0,28.0,29.72,WNW,285,5.0,13.0,78,99.99,,,-99.99,,2013-03-04 04:52:00,